Wake Forest, NC

5:38 AM EDT on August 18, 2017 (GMT -0400)
Matheson | | Change Station
Active Advisory: Heat Advisory

Elev 351 ft 35.95 °N, 78.52 °W | Updated 2 minutes ago

Mostly Cloudy
Mostly Cloudy
73.7 °F
Feels Like 73.7 °F
N
2.0
Wind Variable Wind from South
Gusts 4.0 mph

Today
High -- | Low -- °F
--% Chance of Precip.
Yesterday
High -- | Low -- °F
Precip. -- in
Pressure 29.94 in
Visibility 4.0 miles
Clouds Scattered Clouds 300 ft
Scattered Clouds 700 ft
Dew Point 73 °F
Humidity 98%
Rainfall 0.00 in
Snow Depth Not available.
6:35 AM 7:59 PM
Waning Crescent, 15% visible
METAR KLHZ 180905Z AUTO 00000KT 4SM BR SCT003 SCT007 22/22 A2994 RMK AO2
Pressure 29.94 in
Visibility 4.0 miles
Clouds Scattered Clouds 300 ft
Scattered Clouds 700 ft
Dew Point 73 °F
Humidity 98%
Rainfall 0.00 in
Snow Depth Not available.
6:35 AM 7:59 PM
Waning Crescent, 15% visible
METAR KLHZ 180905Z AUTO 00000KT 4SM BR SCT003 SCT007 22/22 A2994 RMK AO2

Get Your Daily Forecast Email!

Thanks for signing up!

Be on the lookout for a verification email in your inbox.

You'll start receiving severe weather alerts in your inbox..

×

10-Day Weather Forecast

Almanac

Astronomy

Aug. 18, 2017 Rise Set
Actual Time
Civil Twilight
Nautical Twilight
Astronomical Twilight
Moon
Length of Visible Light
Length of Day
Tomorrow will be .
, % of the Moon is Illuminated

Today's Extremes

State Highs State Lows

Community

WunderPhotos

Category 6

Welcome to Category 6. This is the collective home for Weather Underground's featured writeups by Dr. Jeff Masters (right), Bob Henson (left), Chris Burt, and other regular contributors.

Nearby

Air Quality

  Air Quality AQ Index Pollutant
Not available.

Snow Depth

Station Depth Elevation

Earthquake Activity

City Distance Mag. Time & Date
Minimum magnitude displayed is 2.5.

Coastal Water Temperatures

Place Temperature

Stations

Nearby Weather Stations

Station Location Temp. Windchill Dew Point Humidity Wind Precip. Elev Updated Type
                   

Watches & Warnings

Heat Advisory
Issued: 3:49 AM EDT Aug. 18, 2017 – National Weather Service

... Heat advisory in effect from noon today to 6 PM EDT this
evening...

The National Weather Service in Raleigh has issued a heat
advisory, which is in effect from noon today to 6 PM EDT this
evening.

* Temperature... highs today will be in the mid 90s.

* Impacts... heat index values will approach or exceed 105 degrees
over portions of central North Carolina, including the Triangle
region and areas to the south and east.

Precautionary/preparedness actions...

Hot temperatures and high humidity will create a situation in
which heat illnesses are possible. Drink plenty of fluids, stay in
an air-conditioned room, stay out of the sun, and check up on
relatives and neighbors.

Cars can reach lethal temperatures in a matter of minutes in these
conditions. Never leave children or pets unattaended in a
vehicles, not even for a minute.